createdAt,value
2017-11-24T00:00:11.461Z,3.43
2017-11-24T00:02:39.817Z,3.63
2017-11-24T00:05:08.063Z,3.10
2017-11-24T00:07:35.559Z,3.80
2017-11-24T00:10:03.032Z,3.20
2017-11-24T00:12:30.494Z,2.93
2017-11-24T00:14:57.967Z,3.97
2017-11-24T00:17:25.430Z,3.63
2017-11-24T00:19:52.956Z,3.80
2017-11-24T00:22:20.423Z,4.80
2017-11-24T00:24:48.670Z,5.00
2017-11-24T00:27:16.907Z,5.63
2017-11-24T00:29:44.422Z,5.90
2017-11-24T00:32:11.906Z,7.10
2017-11-24T00:34:39.414Z,7.77
2017-11-24T00:37:06.890Z,7.47
2017-11-24T00:39:35.124Z,6.93
2017-11-24T00:42:02.637Z,5.93
2017-11-24T00:44:30.140Z,6.23
2017-11-24T00:46:57.639Z,5.63
2017-11-24T00:49:25.870Z,6.77
2017-11-24T00:51:53.388Z,6.10
2017-11-24T00:54:20.864Z,6.20
2017-11-24T00:56:48.346Z,5.90
2017-11-24T00:59:15.810Z,5.67
2017-11-24T01:01:43.289Z,5.33
2017-11-24T01:04:10.832Z,5.80
2017-11-24T01:06:38.340Z,5.73
2017-11-24T01:09:06.581Z,5.10
2017-11-24T01:11:34.063Z,6.00
2017-11-24T01:14:01.564Z,5.90
2017-11-24T01:16:29.038Z,6.10
2017-11-24T01:18:56.507Z,6.03
2017-11-24T01:21:23.998Z,6.07
2017-11-24T01:23:52.242Z,4.60
2017-11-24T01:26:19.770Z,4.83
2017-11-24T01:28:47.263Z,4.30
2017-11-24T01:31:14.763Z,4.20
2017-11-24T01:33:42.993Z,5.90
2017-11-24T01:36:10.470Z,5.20
2017-11-24T01:38:37.947Z,5.33
2017-11-24T01:41:06.190Z,5.40
2017-11-24T01:43:33.662Z,4.50
2017-11-24T01:46:01.139Z,5.10
2017-11-24T01:48:29.391Z,4.20
2017-11-24T01:50:56.873Z,5.93
2017-11-24T01:53:25.140Z,4.90
2017-11-24T01:55:52.713Z,4.40
2017-11-24T01:58:20.970Z,5.13
2017-11-24T02:00:48.456Z,4.37
2017-11-24T02:03:16.751Z,4.93
2017-11-24T02:05:44.961Z,5.03
2017-11-24T02:08:12.466Z,5.83
2017-11-24T02:10:40.693Z,5.77
2017-11-24T02:13:08.176Z,5.27
2017-11-24T02:15:35.663Z,5.93
2017-11-24T02:18:03.912Z,6.20
2017-11-24T02:20:31.388Z,5.13
2017-11-24T02:22:59.644Z,6.03
2017-11-24T02:25:27.117Z,7.50
2017-11-24T02:27:54.666Z,6.00
2017-11-24T02:30:22.132Z,5.73
2017-11-24T02:32:49.629Z,6.70
2017-11-24T02:35:17.108Z,7.00
2017-11-24T02:37:44.612Z,7.80
2017-11-24T02:40:12.097Z,7.70
2017-11-24T02:42:40.038Z,7.10
2017-11-24T02:45:07.525Z,7.77
2017-11-24T02:47:34.991Z,8.73
2017-11-24T02:50:02.490Z,7.70
2017-11-24T02:52:30.026Z,7.93
2017-11-24T02:54:57.504Z,8.50
2017-11-24T02:57:25.020Z,7.83
2017-11-24T02:59:53.250Z,7.40
2017-11-24T03:02:20.744Z,7.50
2017-11-24T03:04:49.012Z,6.67
2017-11-24T03:07:16.530Z,7.20
2017-11-24T03:09:44.013Z,7.23
2017-11-24T03:12:11.485Z,7.77
2017-11-24T03:14:39.015Z,8.63
2017-11-24T03:17:06.513Z,7.63
2017-11-24T03:19:34.747Z,7.47
2017-11-24T03:22:02.244Z,7.60
2017-11-24T03:24:30.478Z,7.47
2017-11-24T03:26:57.989Z,7.10
2017-11-24T03:29:26.271Z,6.97
2017-11-24T03:31:54.532Z,7.80
2017-11-24T03:34:22.021Z,6.70
2017-11-24T03:36:49.495Z,6.83
2017-11-24T03:39:16.992Z,8.03
2017-11-24T03:41:44.472Z,8.17
2017-11-24T03:44:12.896Z,8.93
2017-11-24T03:46:40.389Z,10.07
2017-11-24T03:49:07.863Z,15.10
2017-11-24T03:51:36.130Z,11.07
2017-11-24T03:54:03.620Z,14.10
2017-11-24T03:56:31.864Z,10.23
2017-11-24T03:59:00.859Z,8.60
2017-11-24T04:01:28.341Z,6.63
2017-11-24T04:03:55.827Z,7.50
2017-11-24T04:06:23.327Z,6.60
2017-11-24T04:08:50.812Z,6.93
2017-11-24T04:11:19.119Z,6.97
2017-11-24T04:13:46.613Z,8.40
2017-11-24T04:16:14.083Z,6.77
2017-11-24T04:18:41.565Z,6.73
2017-11-24T04:21:09.805Z,5.70
2017-11-24T04:23:37.300Z,7.53
2017-11-24T04:26:04.768Z,6.90
2017-11-24T04:28:33.010Z,7.47
2017-11-24T04:31:00.507Z,7.60
2017-11-24T04:33:28.735Z,6.50
2017-11-24T04:35:56.228Z,6.40
2017-11-24T04:38:24.504Z,6.37
2017-11-24T04:40:52.741Z,6.20
2017-11-24T04:43:20.223Z,5.30
2017-11-24T04:45:47.691Z,5.30
2017-11-24T04:48:15.190Z,4.63
2017-11-24T04:50:42.716Z,4.57
2017-11-24T04:53:10.133Z,5.00
2017-11-24T04:55:37.619Z,7.83
2017-11-24T04:58:05.084Z,7.70
2017-11-24T05:00:32.560Z,6.93
2017-11-24T05:03:00.805Z,6.67
2017-11-24T05:05:28.365Z,6.70
2017-11-24T05:07:55.852Z,6.63
2017-11-24T05:10:24.082Z,7.40
2017-11-24T05:12:51.564Z,7.23
2017-11-24T05:15:19.048Z,6.93
2017-11-24T05:17:47.356Z,8.23
2017-11-24T05:20:14.829Z,8.43
2017-11-24T05:22:42.312Z,5.97
2017-11-24T05:25:09.776Z,6.93
2017-11-24T05:27:37.259Z,5.60
2017-11-24T05:30:05.510Z,4.87
2017-11-24T05:32:33.028Z,5.43
2017-11-24T05:35:00.612Z,5.70
2017-11-24T05:37:28.940Z,5.53
2017-11-24T05:39:57.197Z,5.43
2017-11-24T05:42:24.706Z,5.67
2017-11-24T05:44:53.436Z,4.07
2017-11-24T05:47:22.291Z,6.30
2017-11-24T05:49:50.739Z,5.80
2017-11-24T05:52:20.021Z,5.77
2017-11-24T05:54:47.963Z,5.73
2017-11-24T05:57:15.458Z,5.37
2017-11-24T05:59:44.824Z,4.73
2017-11-24T06:02:12.335Z,5.27
2017-11-24T06:04:42.410Z,4.67
2017-11-24T06:07:18.781Z,5.80
2017-11-24T06:09:46.592Z,5.20
2017-11-24T06:12:14.171Z,7.17
2017-11-24T06:14:41.813Z,6.80
2017-11-24T06:17:10.148Z,7.80
2017-11-24T06:19:37.771Z,7.00
2017-11-24T06:22:05.288Z,6.33
2017-11-24T06:24:32.819Z,7.77
2017-11-24T06:27:00.399Z,7.43
2017-11-24T06:29:27.885Z,8.27
2017-11-24T06:31:56.120Z,6.77
2017-11-24T06:34:23.613Z,7.50
2017-11-24T06:36:51.893Z,8.80
2017-11-24T06:39:20.143Z,7.70
2017-11-24T06:41:47.643Z,8.77
2017-11-24T06:44:15.125Z,9.13
2017-11-24T06:46:42.618Z,6.70
2017-11-24T06:49:10.145Z,6.40
2017-11-24T06:51:37.740Z,7.07
2017-11-24T06:54:05.262Z,7.20
2017-11-24T06:56:32.774Z,7.30
2017-11-24T06:59:00.245Z,6.73
2017-11-24T07:01:28.593Z,7.40
2017-11-24T07:03:56.892Z,8.60
2017-11-24T07:06:25.206Z,7.77
2017-11-24T07:08:52.697Z,7.73
2017-11-24T07:11:20.190Z,7.30
2017-11-24T07:13:47.677Z,9.50
2017-11-24T07:18:58.573Z,7.80
2017-11-24T07:21:26.060Z,7.53
2017-11-24T07:23:53.536Z,8.73
2017-11-24T07:26:21.032Z,10.53
2017-11-24T07:28:48.503Z,9.60
2017-11-24T07:31:15.986Z,9.13
2017-11-24T07:33:43.485Z,9.70
2017-11-24T07:36:11.734Z,9.30
2017-11-24T07:38:39.216Z,11.37
2017-11-24T07:41:06.701Z,11.50
2017-11-24T07:43:34.220Z,11.10
2017-11-24T07:46:01.708Z,7.70
2017-11-24T07:48:29.954Z,9.37
2017-11-24T07:50:57.451Z,11.10
2017-11-24T07:53:25.692Z,11.73
2017-11-24T07:55:53.217Z,11.10
2017-11-24T07:58:20.734Z,11.50
2017-11-24T08:00:48.977Z,11.67
2017-11-24T08:03:16.476Z,10.30
2017-11-24T08:05:43.980Z,11.80
2017-11-24T08:08:11.474Z,11.40
2017-11-24T08:10:38.960Z,10.73
2017-11-24T08:13:07.213Z,11.67
2017-11-24T08:15:34.691Z,12.63
2017-11-24T08:18:02.950Z,10.53
2017-11-24T08:20:30.486Z,9.57
2017-11-24T08:22:57.995Z,9.53
2017-11-24T08:25:27.568Z,10.00
2017-11-24T08:27:55.191Z,11.03
2017-11-24T08:30:22.689Z,10.73
2017-11-24T08:32:50.195Z,9.47
2017-11-24T08:35:17.703Z,10.20
2017-11-24T08:37:45.406Z,11.30
2017-11-24T08:40:13.109Z,10.87
2017-11-24T08:42:41.160Z,11.13
2017-11-24T08:45:08.673Z,11.13
2017-11-24T08:47:41.947Z,10.53
2017-11-24T08:50:09.428Z,10.80
2017-11-24T08:52:37.688Z,13.40
2017-11-24T08:55:05.236Z,11.53
2017-11-24T08:57:32.814Z,12.53
2017-11-24T09:00:00.372Z,10.60
2017-11-24T09:02:27.852Z,12.50
2017-11-24T09:04:55.573Z,13.03
2017-11-24T09:07:23.146Z,12.20
2017-11-24T09:09:50.717Z,12.37
2017-11-24T09:12:18.227Z,12.80
2017-11-24T09:14:45.747Z,11.70
2017-11-24T09:17:13.244Z,12.70
2017-11-24T09:19:40.816Z,11.30
2017-11-24T09:22:08.457Z,11.23
2017-11-24T09:24:36.152Z,9.77
2017-11-24T09:27:03.637Z,9.03
2017-11-24T09:29:31.122Z,7.00
2017-11-24T09:31:58.599Z,6.80
2017-11-24T09:34:26.305Z,6.80
2017-11-24T09:36:53.916Z,8.03
2017-11-24T09:39:22.172Z,8.90
2017-11-24T09:41:49.903Z,7.27
2017-11-24T09:44:17.989Z,7.93
2017-11-24T09:46:46.570Z,7.40
2017-11-24T09:49:14.349Z,9.40
2017-11-24T09:51:41.942Z,9.13
2017-11-24T09:54:10.536Z,8.00
2017-11-24T09:56:38.977Z,9.73
2017-11-24T09:59:06.763Z,14.17
2017-11-24T10:01:34.287Z,12.17
2017-11-24T10:04:01.791Z,10.03
2017-11-24T10:06:30.038Z,9.13
2017-11-24T10:08:57.566Z,8.97
2017-11-24T10:11:25.047Z,10.47
2017-11-24T10:13:52.553Z,10.87
2017-11-24T10:16:20.034Z,12.30
2017-11-24T10:18:47.729Z,10.50
2017-11-24T10:21:20.834Z,9.50
2017-11-24T10:23:48.483Z,10.60
2017-11-24T10:26:16.038Z,10.17
2017-11-24T10:28:43.712Z,9.27
2017-11-24T10:31:11.234Z,9.40
2017-11-24T10:33:38.912Z,10.70
2017-11-24T10:36:06.536Z,11.00
2017-11-24T10:38:35.831Z,10.50
2017-11-24T10:41:03.392Z,11.37
2017-11-24T10:43:30.970Z,10.63
2017-11-24T10:45:58.553Z,9.03
2017-11-24T10:48:26.106Z,10.43
2017-11-24T10:50:53.583Z,8.70
2017-11-24T10:53:21.098Z,9.67
2017-11-24T10:55:49.346Z,9.27
2017-11-24T10:58:16.909Z,10.60
2017-11-24T11:00:45.171Z,10.50
2017-11-24T11:03:12.668Z,10.40
2017-11-24T11:05:40.950Z,9.77
2017-11-24T11:08:09.202Z,10.47
2017-11-24T11:10:36.711Z,8.83
2017-11-24T11:13:04.223Z,11.23
2017-11-24T11:15:32.304Z,9.13
2017-11-24T11:17:59.826Z,11.60
2017-11-24T11:20:28.336Z,10.70
2017-11-24T11:22:56.627Z,10.40
2017-11-24T11:25:24.387Z,12.07
2017-11-24T11:27:52.800Z,12.30
2017-11-24T11:30:20.585Z,10.80
2017-11-24T11:32:48.103Z,9.00
2017-11-24T11:35:16.392Z,7.40
2017-11-24T11:37:43.892Z,7.33
2017-11-24T11:40:11.602Z,7.70
2017-11-24T11:42:39.389Z,8.73
2017-11-24T11:45:06.856Z,7.10
2017-11-24T11:47:34.345Z,6.93
2017-11-24T11:50:02.120Z,6.00
2017-11-24T11:52:29.609Z,6.80
2017-11-24T11:54:57.854Z,5.50
2017-11-24T11:57:25.349Z,6.43
2017-11-24T11:59:53.585Z,7.20
2017-11-24T12:02:21.103Z,8.10
2017-11-24T12:04:48.584Z,8.33
2017-11-24T12:07:16.125Z,8.07
2017-11-24T12:09:43.598Z,7.77
2017-11-24T12:12:11.135Z,9.50
2017-11-24T12:14:38.615Z,8.10
2017-11-24T12:17:06.159Z,9.40
2017-11-24T12:19:33.665Z,12.00
2017-11-24T12:22:01.188Z,12.87
2017-11-24T12:24:28.670Z,13.23
2017-11-24T12:26:56.176Z,13.63
2017-11-24T12:29:23.685Z,13.20
2017-11-24T12:31:51.195Z,12.93
2017-11-24T12:34:19.449Z,15.83
2017-11-24T12:36:46.937Z,16.63
2017-11-24T12:39:15.178Z,15.77
2017-11-24T12:41:42.647Z,15.57
2017-11-24T12:44:10.957Z,17.13
2017-11-24T12:46:38.445Z,16.40
2017-11-24T12:49:06.036Z,13.93
2017-11-24T12:51:33.535Z,15.30
2017-11-24T12:54:01.042Z,14.90
2017-11-24T12:56:28.517Z,16.63
2017-11-24T12:58:56.476Z,16.07
2017-11-24T13:01:23.960Z,19.53
2017-11-24T13:03:52.204Z,15.53
2017-11-24T13:06:19.674Z,18.27
2017-11-24T13:08:47.214Z,15.90
2017-11-24T13:11:14.693Z,18.03
2017-11-24T13:13:43.696Z,18.23
2017-11-24T13:16:11.215Z,15.97
2017-11-24T13:18:38.701Z,16.70
2017-11-24T13:21:06.361Z,17.37
2017-11-24T13:23:33.881Z,15.37
2017-11-24T13:26:01.386Z,16.60
2017-11-24T13:28:28.931Z,17.50
2017-11-24T13:30:56.448Z,16.73
2017-11-24T13:33:23.952Z,15.50
2017-11-24T13:35:51.427Z,17.70
2017-11-24T13:38:18.921Z,14.70
2017-11-24T13:40:46.569Z,14.97
2017-11-24T13:43:15.407Z,15.17
2017-11-24T13:45:42.974Z,15.43
2017-11-24T13:48:10.502Z,14.50
2017-11-24T13:50:38.942Z,15.07
2017-11-24T13:53:07.200Z,15.23
2017-11-24T13:55:34.801Z,14.53
2017-11-24T13:58:03.151Z,14.10
2017-11-24T14:00:32.293Z,13.67
2017-11-24T14:03:00.055Z,14.90
2017-11-24T14:05:28.852Z,15.10
2017-11-24T14:07:56.374Z,14.57
2017-11-24T14:10:23.935Z,15.00
2017-11-24T14:12:51.455Z,14.23
2017-11-24T14:15:19.329Z,16.00
2017-11-24T14:17:46.989Z,12.13
2017-11-24T14:20:14.495Z,13.50
2017-11-24T14:22:42.020Z,13.37
2017-11-24T14:25:09.622Z,14.00
2017-11-24T14:27:37.882Z,13.13
2017-11-24T14:30:05.597Z,14.77
2017-11-24T14:32:33.158Z,12.73
2017-11-24T14:35:00.854Z,14.67
2017-11-24T14:37:28.368Z,14.60
2017-11-24T14:39:55.864Z,13.67
2017-11-24T14:42:23.395Z,10.93
2017-11-24T14:44:51.027Z,12.50
2017-11-24T14:47:19.352Z,11.50
2017-11-24T14:49:46.861Z,14.53
2017-11-24T14:52:14.412Z,16.17
2017-11-24T14:54:41.887Z,16.23
2017-11-24T14:57:09.396Z,16.33
2017-11-24T14:59:36.983Z,15.07
2017-11-24T15:02:05.320Z,14.20
2017-11-24T15:05:04.977Z,15.17
2017-11-24T15:07:33.221Z,14.53
2017-11-24T15:10:00.739Z,14.17
2017-11-24T15:12:28.976Z,14.97
2017-11-24T15:14:57.014Z,16.83
2017-11-24T15:17:24.500Z,17.37
2017-11-24T15:19:52.056Z,15.90
2017-11-24T15:22:19.558Z,16.70
2017-11-24T15:24:47.804Z,17.83
2017-11-24T15:27:15.348Z,16.33
2017-11-24T15:29:42.859Z,16.70
2017-11-24T15:32:11.203Z,17.63
2017-11-24T15:34:38.779Z,20.00
2017-11-24T15:37:06.306Z,18.83
2017-11-24T15:39:33.845Z,21.77
2017-11-24T15:42:01.395Z,20.20
2017-11-24T15:44:28.873Z,21.83
2017-11-24T15:47:08.677Z,22.33
2017-11-24T15:49:36.172Z,23.70
2017-11-24T15:52:03.670Z,30.23
2017-11-24T15:54:32.907Z,29.50
2017-11-24T15:57:00.461Z,28.20
2017-11-24T15:59:28.864Z,27.83
2017-11-24T16:01:56.877Z,26.10
2017-11-24T16:04:24.391Z,24.10
2017-11-24T16:06:51.902Z,27.40
2017-11-24T16:09:19.366Z,31.70
2017-11-24T16:11:46.864Z,30.37
2017-11-24T16:14:14.365Z,29.37
2017-11-24T16:16:41.848Z,28.70
2017-11-24T16:19:09.370Z,30.73
2017-11-24T16:21:36.870Z,31.97
2017-11-24T16:24:05.139Z,40.90
2017-11-24T16:26:32.645Z,38.17
2017-11-24T16:29:00.233Z,33.50
2017-11-24T16:31:27.781Z,33.50
2017-11-24T16:33:55.341Z,28.67
2017-11-24T16:36:22.845Z,26.00
2017-11-24T16:38:51.894Z,29.50
2017-11-24T16:41:19.401Z,28.83
2017-11-24T16:43:47.764Z,29.73
2017-11-24T16:46:15.330Z,30.60
2017-11-24T16:48:42.914Z,31.20
2017-11-24T16:51:10.415Z,31.80
2017-11-24T16:53:37.967Z,34.17
2017-11-24T16:56:05.478Z,30.70
2017-11-24T16:58:32.963Z,31.33
2017-11-24T17:01:00.460Z,35.20
2017-11-24T17:03:28.075Z,26.97
2017-11-24T17:05:56.517Z,30.33
2017-11-24T17:08:24.009Z,31.47
2017-11-24T17:10:51.515Z,30.60
2017-11-24T17:13:18.994Z,34.23
2017-11-24T17:15:46.523Z,36.63
2017-11-24T17:18:14.031Z,33.27
2017-11-24T17:20:41.513Z,40.83
2017-11-24T17:23:09.923Z,41.87
2017-11-24T17:25:37.395Z,36.73
2017-11-24T17:28:04.885Z,36.80
2017-11-24T17:30:32.460Z,34.27
2017-11-24T17:33:00.885Z,34.90
2017-11-24T17:35:28.406Z,38.10
2017-11-24T17:37:56.800Z,38.17
2017-11-24T17:40:24.353Z,43.27
2017-11-24T17:42:52.665Z,49.40
2017-11-24T17:45:20.194Z,35.73
2017-11-24T17:47:48.467Z,32.60
2017-11-24T17:50:16.761Z,31.10
2017-11-24T17:52:44.305Z,29.53
2017-11-24T17:55:12.634Z,32.30
2017-11-24T17:57:40.894Z,36.93
2017-11-24T18:00:08.445Z,35.33
2017-11-24T18:02:36.146Z,37.37
2017-11-24T18:05:03.660Z,35.57
2017-11-24T18:07:31.235Z,36.33
2017-11-24T18:09:58.721Z,37.10
2017-11-24T18:12:26.294Z,36.83
2017-11-24T18:14:54.251Z,35.00
2017-11-24T18:17:21.741Z,36.17
2017-11-24T18:19:50.074Z,33.50
2017-11-24T18:22:17.596Z,34.57
2017-11-24T18:24:45.872Z,31.97
2017-11-24T18:27:14.101Z,36.33
2017-11-24T18:29:41.611Z,33.43
2017-11-24T18:32:09.100Z,33.17
2017-11-24T18:34:36.777Z,34.50
2017-11-24T18:37:04.316Z,33.47
2017-11-24T18:39:31.919Z,35.10
2017-11-24T18:41:59.413Z,32.33
2017-11-24T18:44:27.882Z,31.30
2017-11-24T18:46:55.412Z,31.40
2017-11-24T18:49:22.929Z,26.37
2017-11-24T18:51:50.410Z,28.53
2017-11-24T18:54:17.917Z,27.17
2017-11-24T18:56:46.190Z,28.73
2017-11-24T18:59:14.470Z,27.63
2017-11-24T19:01:42.794Z,26.03
2017-11-24T19:04:10.320Z,26.80
2017-11-24T19:06:37.832Z,27.47
2017-11-24T19:09:05.344Z,28.90
2017-11-24T19:11:32.924Z,28.47
2017-11-24T19:14:00.392Z,29.50
2017-11-24T19:16:27.935Z,30.40
2017-11-24T19:18:55.420Z,23.50
2017-11-24T19:21:22.903Z,33.30
2017-11-24T19:23:50.623Z,29.77
2017-11-24T19:26:18.121Z,23.37
2017-11-24T19:28:45.622Z,26.20
2017-11-24T19:31:13.112Z,23.00
2017-11-24T19:33:40.612Z,26.97
2017-11-24T19:36:08.866Z,21.93
2017-11-24T19:38:36.411Z,25.83
2017-11-24T19:41:03.965Z,25.37
2017-11-24T19:43:31.499Z,25.20
2017-11-24T19:45:58.978Z,24.67
2017-11-24T19:48:26.709Z,21.20
2017-11-24T19:50:55.004Z,19.87
2017-11-24T19:53:22.536Z,19.87
2017-11-24T19:55:50.786Z,21.17
2017-11-24T19:58:18.423Z,21.60
2017-11-24T20:00:45.912Z,21.43
2017-11-24T20:03:13.387Z,22.30
2017-11-24T20:05:40.924Z,22.00
2017-11-24T20:08:08.473Z,24.60
2017-11-24T20:10:36.037Z,24.63
2017-11-24T20:13:03.576Z,24.37
2017-11-24T20:15:31.088Z,24.20
2017-11-24T20:17:59.413Z,23.27
2017-11-24T20:20:26.918Z,24.50
2017-11-24T20:22:54.393Z,24.53
2017-11-24T20:25:21.908Z,23.30
2017-11-24T20:27:49.461Z,23.70
2017-11-24T20:30:16.999Z,23.80
2017-11-24T20:32:44.548Z,22.80
2017-11-24T20:35:12.119Z,24.90
2017-11-24T20:37:39.667Z,22.80
2017-11-24T20:40:07.164Z,27.20
2017-11-24T20:42:34.765Z,25.07
2017-11-24T20:45:03.098Z,23.00
2017-11-24T20:47:30.595Z,23.27
2017-11-24T20:49:58.177Z,22.70
2017-11-24T20:52:25.995Z,22.53
2017-11-24T20:54:54.446Z,21.40
2017-11-24T20:57:22.066Z,21.20
2017-11-24T20:59:50.444Z,21.03
2017-11-24T21:02:17.941Z,17.63
2017-11-24T21:04:45.412Z,20.20
2017-11-24T21:07:13.029Z,16.07
2017-11-24T21:09:41.344Z,15.47
2017-11-24T21:12:08.929Z,15.20
2017-11-24T21:14:37.086Z,14.83
2017-11-24T21:17:04.800Z,15.30
2017-11-24T21:19:33.450Z,13.63
2017-11-24T21:22:01.864Z,14.37
2017-11-24T21:24:29.431Z,15.83
2017-11-24T21:26:57.725Z,15.40
2017-11-24T21:29:26.006Z,14.90
2017-11-24T21:31:54.307Z,13.60
2017-11-24T21:34:21.832Z,16.53
2017-11-24T21:36:50.230Z,13.67
2017-11-24T21:39:17.836Z,12.63
2017-11-24T21:41:45.705Z,13.20
2017-11-24T21:44:13.307Z,16.57
2017-11-24T21:46:41.072Z,14.73
2017-11-24T21:49:09.336Z,14.00
2017-11-24T21:51:36.926Z,14.40
2017-11-24T21:54:04.434Z,14.03
2017-11-24T21:56:31.921Z,12.10
2017-11-24T21:58:59.422Z,11.70
2017-11-24T22:01:27.003Z,12.70
2017-11-24T22:03:54.509Z,14.47
2017-11-24T22:06:22.837Z,15.77
2017-11-24T22:08:50.438Z,13.43
2017-11-24T22:11:18.747Z,12.47
2017-11-24T22:13:46.280Z,11.20
2017-11-24T22:16:14.550Z,11.37
2017-11-24T22:18:42.024Z,9.23
2017-11-24T22:21:09.537Z,9.23
2017-11-24T22:23:37.013Z,9.90
2017-11-24T22:26:04.487Z,10.77
2017-11-24T22:28:33.269Z,10.17
2017-11-24T22:31:01.625Z,11.83
2017-11-24T22:33:29.136Z,11.30
2017-11-24T22:35:57.711Z,11.20
2017-11-24T22:38:25.971Z,10.73
2017-11-24T22:40:53.491Z,11.33
2017-11-24T22:43:20.978Z,13.17
2017-11-24T22:45:49.975Z,11.10
2017-11-24T22:48:18.240Z,12.57
2017-11-24T22:50:45.748Z,11.60
2017-11-24T22:53:13.208Z,14.17
2017-11-24T22:55:40.768Z,15.47
2017-11-24T22:58:08.257Z,15.23
2017-11-24T23:00:35.762Z,14.00
2017-11-24T23:03:03.235Z,12.67
2017-11-24T23:05:31.500Z,12.47
2017-11-24T23:07:59.757Z,12.40
2017-11-24T23:10:27.234Z,11.03
2017-11-24T23:12:54.769Z,11.30
2017-11-24T23:15:22.279Z,11.77
2017-11-24T23:17:49.748Z,11.23
2017-11-24T23:20:17.224Z,10.23
2017-11-24T23:22:45.626Z,12.87
2017-11-24T23:25:13.098Z,12.50
2017-11-24T23:27:40.612Z,10.53
2017-11-24T23:30:08.082Z,13.60
2017-11-24T23:32:35.560Z,11.10
2017-11-24T23:35:03.044Z,14.57
2017-11-24T23:37:31.338Z,11.10
2017-11-24T23:39:59.609Z,12.20
2017-11-24T23:42:27.880Z,11.10
2017-11-24T23:44:56.132Z,10.70
2017-11-24T23:47:24.404Z,12.50
2017-11-24T23:49:51.878Z,13.10
2017-11-24T23:52:19.364Z,14.20
2017-11-24T23:54:47.624Z,16.90
2017-11-24T23:57:15.850Z,16.87
2017-11-24T23:59:43.328Z,16.13
